sensor_id;sensor_type;location;lat;lon;timestamp;P1;durP1;ratioP1;P2;durP2;ratioP2
3022;SDS011;1521;53.584;9.938;2022-10-01T00:01:56;8.00;;;4.47;;
3022;SDS011;1521;53.584;9.938;2022-10-01T00:04:24;5.40;;;4.70;;
3022;SDS011;1521;53.584;9.938;2022-10-01T00:06:50;4.70;;;4.07;;
3022;SDS011;1521;53.584;9.938;2022-10-01T00:09:16;7.10;;;4.50;;
3022;SDS011;1521;53.584;9.938;2022-10-01T00:11:41;10.60;;;4.47;;
3022;SDS011;1521;53.584;9.938;2022-10-01T00:14:07;6.10;;;4.10;;
3022;SDS011;1521;53.584;9.938;2022-10-01T00:16:34;4.90;;;4.40;;
3022;SDS011;1521;53.584;9.938;2022-10-01T00:18:59;5.07;;;4.60;;
3022;SDS011;1521;53.584;9.938;2022-10-01T00:21:29;5.00;;;4.40;;
3022;SDS011;1521;53.584;9.938;2022-10-01T00:24:00;8.67;;;4.67;;
3022;SDS011;1521;53.584;9.938;2022-10-01T00:26:30;6.20;;;5.07;;
3022;SDS011;1521;53.584;9.938;2022-10-01T00:29:18;4.93;;;4.30;;
3022;SDS011;1521;53.584;9.938;2022-10-01T00:31:43;5.57;;;4.50;;
3022;SDS011;1521;53.584;9.938;2022-10-01T00:34:09;4.87;;;4.13;;
3022;SDS011;1521;53.584;9.938;2022-10-01T00:36:37;5.53;;;3.87;;
3022;SDS011;1521;53.584;9.938;2022-10-01T00:39:02;5.33;;;4.43;;
3022;SDS011;1521;53.584;9.938;2022-10-01T00:41:29;6.40;;;4.27;;
3022;SDS011;1521;53.584;9.938;2022-10-01T00:43:58;5.23;;;4.10;;
3022;SDS011;1521;53.584;9.938;2022-10-01T00:48:58;6.03;;;4.87;;
3022;SDS011;1521;53.584;9.938;2022-10-01T00:51:32;6.57;;;4.80;;
3022;SDS011;1521;53.584;9.938;2022-10-01T00:54:38;5.50;;;4.63;;
3022;SDS011;1521;53.584;9.938;2022-10-01T00:56:56;5.43;;;4.63;;
3022;SDS011;1521;53.584;9.938;2022-10-01T00:59:23;4.93;;;4.43;;
3022;SDS011;1521;53.584;9.938;2022-10-01T01:01:50;6.57;;;4.53;;
3022;SDS011;1521;53.584;9.938;2022-10-01T01:04:16;5.40;;;4.90;;
3022;SDS011;1521;53.584;9.938;2022-10-01T01:07:02;5.20;;;4.67;;
3022;SDS011;1521;53.584;9.938;2022-10-01T01:09:39;4.70;;;4.20;;
3022;SDS011;1521;53.584;9.938;2022-10-01T01:12:18;9.23;;;4.67;;
3022;SDS011;1521;53.584;9.938;2022-10-01T01:17:40;10.37;;;5.27;;
3022;SDS011;1521;53.584;9.938;2022-10-01T01:23:02;7.30;;;4.63;;
3022;SDS011;1521;53.584;9.938;2022-10-01T01:30:55;8.63;;;4.53;;
3022;SDS011;1521;53.584;9.938;2022-10-01T01:33:32;6.53;;;4.50;;
3022;SDS011;1521;53.584;9.938;2022-10-01T01:36:02;7.93;;;4.70;;
3022;SDS011;1521;53.584;9.938;2022-10-01T01:38:36;6.10;;;4.10;;
3022;SDS011;1521;53.584;9.938;2022-10-01T01:41:06;10.20;;;4.70;;
3022;SDS011;1521;53.584;9.938;2022-10-01T01:43:35;7.73;;;4.30;;
3022;SDS011;1521;53.584;9.938;2022-10-01T01:46:05;8.20;;;5.10;;
3022;SDS011;1521;53.584;9.938;2022-10-01T01:48:34;7.57;;;4.70;;
3022;SDS011;1521;53.584;9.938;2022-10-01T01:51:07;6.67;;;4.87;;
3022;SDS011;1521;53.584;9.938;2022-10-01T01:53:38;7.53;;;4.53;;
3022;SDS011;1521;53.584;9.938;2022-10-01T01:56:04;5.23;;;4.70;;
3022;SDS011;1521;53.584;9.938;2022-10-01T01:58:31;6.90;;;4.37;;
3022;SDS011;1521;53.584;9.938;2022-10-01T02:00:58;6.00;;;5.00;;
3022;SDS011;1521;53.584;9.938;2022-10-01T02:03:25;6.90;;;4.77;;
3022;SDS011;1521;53.584;9.938;2022-10-01T02:08:35;6.87;;;4.93;;
3022;SDS011;1521;53.584;9.938;2022-10-01T02:14:07;9.20;;;5.47;;
3022;SDS011;1521;53.584;9.938;2022-10-01T02:16:57;5.67;;;5.13;;
3022;SDS011;1521;53.584;9.938;2022-10-01T02:20:15;5.27;;;4.77;;
3022;SDS011;1521;53.584;9.938;2022-10-01T02:22:50;8.03;;;4.80;;
3022;SDS011;1521;53.584;9.938;2022-10-01T02:25:22;7.53;;;4.77;;
3022;SDS011;1521;53.584;9.938;2022-10-01T02:27:53;6.40;;;5.03;;
3022;SDS011;1521;53.584;9.938;2022-10-01T02:30:25;8.70;;;4.47;;
3022;SDS011;1521;53.584;9.938;2022-10-01T02:32:53;7.57;;;5.37;;
3022;SDS011;1521;53.584;9.938;2022-10-01T02:35:22;5.80;;;4.50;;
3022;SDS011;1521;53.584;9.938;2022-10-01T02:37:50;6.43;;;4.60;;
3022;SDS011;1521;53.584;9.938;2022-10-01T02:40:20;7.30;;;4.60;;
3022;SDS011;1521;53.584;9.938;2022-10-01T02:42:51;6.43;;;5.30;;
3022;SDS011;1521;53.584;9.938;2022-10-01T02:45:23;7.93;;;4.53;;
3022;SDS011;1521;53.584;9.938;2022-10-01T02:47:56;6.27;;;4.70;;
3022;SDS011;1521;53.584;9.938;2022-10-01T02:50:26;5.13;;;4.60;;
3022;SDS011;1521;53.584;9.938;2022-10-01T02:52:59;5.47;;;4.30;;
3022;SDS011;1521;53.584;9.938;2022-10-01T02:55:31;10.20;;;4.20;;
3022;SDS011;1521;53.584;9.938;2022-10-01T02:58:00;5.30;;;4.40;;
3022;SDS011;1521;53.584;9.938;2022-10-01T03:00:25;4.97;;;4.47;;
3022;SDS011;1521;53.584;9.938;2022-10-01T03:02:52;8.63;;;5.03;;
3022;SDS011;1521;53.584;9.938;2022-10-01T03:05:18;11.73;;;4.20;;
3022;SDS011;1521;53.584;9.938;2022-10-01T03:07:45;5.43;;;4.37;;
3022;SDS011;1521;53.584;9.938;2022-10-01T03:10:11;7.23;;;4.40;;
3022;SDS011;1521;53.584;9.938;2022-10-01T03:12:38;5.10;;;4.37;;
3022;SDS011;1521;53.584;9.938;2022-10-01T03:15:08;4.87;;;4.23;;
3022;SDS011;1521;53.584;9.938;2022-10-01T03:17:34;4.93;;;4.53;;
3022;SDS011;1521;53.584;9.938;2022-10-01T03:20:01;4.33;;;3.93;;
3022;SDS011;1521;53.584;9.938;2022-10-01T03:22:27;4.90;;;4.37;;
3022;SDS011;1521;53.584;9.938;2022-10-01T03:24:52;6.83;;;4.90;;
3022;SDS011;1521;53.584;9.938;2022-10-01T03:27:18;8.03;;;4.63;;
3022;SDS011;1521;53.584;9.938;2022-10-01T03:29:45;9.73;;;4.33;;
3022;SDS011;1521;53.584;9.938;2022-10-01T03:32:11;5.07;;;4.33;;
3022;SDS011;1521;53.584;9.938;2022-10-01T03:34:37;5.53;;;4.60;;
3022;SDS011;1521;53.584;9.938;2022-10-01T03:37:03;5.20;;;4.30;;
3022;SDS011;1521;53.584;9.938;2022-10-01T03:39:28;8.23;;;4.77;;
3022;SDS011;1521;53.584;9.938;2022-10-01T03:41:55;5.43;;;4.53;;
3022;SDS011;1521;53.584;9.938;2022-10-01T03:44:20;5.07;;;4.23;;
3022;SDS011;1521;53.584;9.938;2022-10-01T03:46:46;5.00;;;4.43;;
3022;SDS011;1521;53.584;9.938;2022-10-01T03:49:12;6.73;;;4.43;;
3022;SDS011;1521;53.584;9.938;2022-10-01T03:51:38;6.83;;;4.87;;
3022;SDS011;1521;53.584;9.938;2022-10-01T03:54:04;9.37;;;4.83;;
3022;SDS011;1521;53.584;9.938;2022-10-01T03:56:30;7.63;;;4.50;;
3022;SDS011;1521;53.584;9.938;2022-10-01T03:58:57;5.70;;;4.10;;
3022;SDS011;1521;53.584;9.938;2022-10-01T04:01:23;6.83;;;5.00;;
3022;SDS011;1521;53.584;9.938;2022-10-01T04:03:49;4.93;;;4.33;;
3022;SDS011;1521;53.584;9.938;2022-10-01T04:06:16;8.20;;;4.70;;
3022;SDS011;1521;53.584;9.938;2022-10-01T04:08:42;6.17;;;5.27;;
3022;SDS011;1521;53.584;9.938;2022-10-01T04:11:07;6.07;;;4.83;;
3022;SDS011;1521;53.584;9.938;2022-10-01T04:13:33;8.43;;;4.77;;
3022;SDS011;1521;53.584;9.938;2022-10-01T04:15:59;10.43;;;6.20;;
3022;SDS011;1521;53.584;9.938;2022-10-01T04:18:26;6.07;;;5.47;;
3022;SDS011;1521;53.584;9.938;2022-10-01T04:20:51;9.00;;;5.43;;
3022;SDS011;1521;53.584;9.938;2022-10-01T04:23:17;8.63;;;5.23;;
3022;SDS011;1521;53.584;9.938;2022-10-01T04:25:43;7.37;;;5.47;;
3022;SDS011;1521;53.584;9.938;2022-10-01T04:28:12;7.93;;;6.07;;
3022;SDS011;1521;53.584;9.938;2022-10-01T04:30:39;11.33;;;6.30;;
3022;SDS011;1521;53.584;9.938;2022-10-01T04:33:08;7.60;;;5.80;;
3022;SDS011;1521;53.584;9.938;2022-10-01T04:35:38;6.50;;;5.70;;
3022;SDS011;1521;53.584;9.938;2022-10-01T04:38:05;7.00;;;5.70;;
3022;SDS011;1521;53.584;9.938;2022-10-01T04:40:35;5.90;;;5.40;;
3022;SDS011;1521;53.584;9.938;2022-10-01T04:43:02;7.37;;;5.20;;
3022;SDS011;1521;53.584;9.938;2022-10-01T04:45:28;6.90;;;6.10;;
3022;SDS011;1521;53.584;9.938;2022-10-01T04:47:55;7.43;;;5.50;;
3022;SDS011;1521;53.584;9.938;2022-10-01T04:50:21;8.10;;;5.10;;
3022;SDS011;1521;53.584;9.938;2022-10-01T04:52:49;7.13;;;5.07;;
3022;SDS011;1521;53.584;9.938;2022-10-01T04:55:16;5.93;;;5.30;;
3022;SDS011;1521;53.584;9.938;2022-10-01T04:57:43;7.60;;;5.90;;
3022;SDS011;1521;53.584;9.938;2022-10-01T05:00:10;5.83;;;5.23;;
3022;SDS011;1521;53.584;9.938;2022-10-01T05:02:44;6.27;;;5.03;;
3022;SDS011;1521;53.584;9.938;2022-10-01T05:05:10;8.13;;;5.60;;
3022;SDS011;1521;53.584;9.938;2022-10-01T05:07:37;10.17;;;6.30;;
3022;SDS011;1521;53.584;9.938;2022-10-01T05:10:04;9.83;;;5.80;;
3022;SDS011;1521;53.584;9.938;2022-10-01T05:12:30;9.30;;;6.30;;
3022;SDS011;1521;53.584;9.938;2022-10-01T05:14:56;8.77;;;6.00;;
3022;SDS011;1521;53.584;9.938;2022-10-01T05:17:21;8.20;;;6.00;;
3022;SDS011;1521;53.584;9.938;2022-10-01T05:19:48;9.23;;;5.90;;
3022;SDS011;1521;53.584;9.938;2022-10-01T05:22:14;7.37;;;6.13;;
3022;SDS011;1521;53.584;9.938;2022-10-01T05:24:40;7.23;;;6.00;;
3022;SDS011;1521;53.584;9.938;2022-10-01T05:27:07;8.23;;;5.03;;
3022;SDS011;1521;53.584;9.938;2022-10-01T05:29:36;8.83;;;5.70;;
3022;SDS011;1521;53.584;9.938;2022-10-01T05:32:02;8.73;;;6.70;;
3022;SDS011;1521;53.584;9.938;2022-10-01T05:34:28;8.10;;;6.83;;
3022;SDS011;1521;53.584;9.938;2022-10-01T05:36:54;6.40;;;5.80;;
3022;SDS011;1521;53.584;9.938;2022-10-01T05:39:19;8.57;;;6.23;;
3022;SDS011;1521;53.584;9.938;2022-10-01T05:41:45;7.17;;;5.90;;
3022;SDS011;1521;53.584;9.938;2022-10-01T05:44:10;7.07;;;6.20;;
3022;SDS011;1521;53.584;9.938;2022-10-01T05:46:36;7.10;;;5.70;;
3022;SDS011;1521;53.584;9.938;2022-10-01T05:49:02;7.87;;;5.90;;
3022;SDS011;1521;53.584;9.938;2022-10-01T05:51:27;6.40;;;5.60;;
3022;SDS011;1521;53.584;9.938;2022-10-01T05:53:54;6.53;;;5.90;;
3022;SDS011;1521;53.584;9.938;2022-10-01T05:56:22;8.53;;;6.00;;
3022;SDS011;1521;53.584;9.938;2022-10-01T05:58:48;7.70;;;6.10;;
3022;SDS011;1521;53.584;9.938;2022-10-01T06:01:14;10.43;;;6.30;;
3022;SDS011;1521;53.584;9.938;2022-10-01T06:03:40;10.00;;;6.57;;
3022;SDS011;1521;53.584;9.938;2022-10-01T06:06:06;8.07;;;6.03;;
3022;SDS011;1521;53.584;9.938;2022-10-01T06:08:33;6.77;;;6.07;;
3022;SDS011;1521;53.584;9.938;2022-10-01T06:10:59;8.63;;;6.60;;
3022;SDS011;1521;53.584;9.938;2022-10-01T06:13:26;9.93;;;6.60;;
3022;SDS011;1521;53.584;9.938;2022-10-01T06:15:53;6.67;;;5.60;;
3022;SDS011;1521;53.584;9.938;2022-10-01T06:18:18;7.37;;;5.93;;
3022;SDS011;1521;53.584;9.938;2022-10-01T06:20:44;10.67;;;6.23;;
3022;SDS011;1521;53.584;9.938;2022-10-01T06:23:10;9.53;;;6.50;;
3022;SDS011;1521;53.584;9.938;2022-10-01T06:25:37;7.23;;;6.17;;
3022;SDS011;1521;53.584;9.938;2022-10-01T06:28:05;8.00;;;6.17;;
3022;SDS011;1521;53.584;9.938;2022-10-01T06:30:32;8.53;;;6.20;;
3022;SDS011;1521;53.584;9.938;2022-10-01T06:32:59;6.37;;;5.40;;
3022;SDS011;1521;53.584;9.938;2022-10-01T06:35:33;8.20;;;6.10;;
3022;SDS011;1521;53.584;9.938;2022-10-01T06:38:00;10.80;;;6.00;;
3022;SDS011;1521;53.584;9.938;2022-10-01T06:40:26;8.03;;;6.63;;
3022;SDS011;1521;53.584;9.938;2022-10-01T06:42:53;6.07;;;5.47;;
3022;SDS011;1521;53.584;9.938;2022-10-01T06:45:23;7.70;;;5.70;;
3022;SDS011;1521;53.584;9.938;2022-10-01T06:47:55;7.03;;;5.97;;
3022;SDS011;1521;53.584;9.938;2022-10-01T06:50:23;7.33;;;5.77;;
3022;SDS011;1521;53.584;9.938;2022-10-01T06:52:50;10.40;;;6.00;;
3022;SDS011;1521;53.584;9.938;2022-10-01T06:55:24;9.13;;;5.73;;
3022;SDS011;1521;53.584;9.938;2022-10-01T06:57:55;6.60;;;5.83;;
3022;SDS011;1521;53.584;9.938;2022-10-01T07:00:22;6.70;;;5.50;;
3022;SDS011;1521;53.584;9.938;2022-10-01T07:02:49;5.37;;;4.87;;
3022;SDS011;1521;53.584;9.938;2022-10-01T07:05:14;7.23;;;5.30;;
3022;SDS011;1521;53.584;9.938;2022-10-01T07:07:41;7.50;;;5.60;;
3022;SDS011;1521;53.584;9.938;2022-10-01T07:10:07;7.50;;;5.57;;
3022;SDS011;1521;53.584;9.938;2022-10-01T07:12:34;6.27;;;5.70;;
3022;SDS011;1521;53.584;9.938;2022-10-01T07:15:01;6.57;;;5.20;;
3022;SDS011;1521;53.584;9.938;2022-10-01T07:17:27;5.67;;;5.07;;
3022;SDS011;1521;53.584;9.938;2022-10-01T07:19:52;6.03;;;5.30;;
3022;SDS011;1521;53.584;9.938;2022-10-01T07:22:18;5.93;;;5.40;;
3022;SDS011;1521;53.584;9.938;2022-10-01T07:24:44;6.63;;;5.47;;
3022;SDS011;1521;53.584;9.938;2022-10-01T07:27:11;6.77;;;5.30;;
3022;SDS011;1521;53.584;9.938;2022-10-01T07:29:37;9.80;;;6.57;;
3022;SDS011;1521;53.584;9.938;2022-10-01T07:32:02;7.40;;;5.93;;
3022;SDS011;1521;53.584;9.938;2022-10-01T07:34:32;8.30;;;6.10;;
3022;SDS011;1521;53.584;9.938;2022-10-01T07:36:59;8.17;;;6.30;;
3022;SDS011;1521;53.584;9.938;2022-10-01T07:39:25;7.53;;;5.73;;
3022;SDS011;1521;53.584;9.938;2022-10-01T07:41:51;6.70;;;5.67;;
3022;SDS011;1521;53.584;9.938;2022-10-01T07:44:17;8.40;;;5.87;;
3022;SDS011;1521;53.584;9.938;2022-10-01T07:46:43;6.10;;;5.30;;
3022;SDS011;1521;53.584;9.938;2022-10-01T07:49:10;8.17;;;6.10;;
3022;SDS011;1521;53.584;9.938;2022-10-01T07:51:36;6.77;;;5.77;;
3022;SDS011;1521;53.584;9.938;2022-10-01T07:54:02;7.90;;;5.77;;
3022;SDS011;1521;53.584;9.938;2022-10-01T07:56:28;7.00;;;5.43;;
3022;SDS011;1521;53.584;9.938;2022-10-01T07:58:54;9.23;;;6.50;;
3022;SDS011;1521;53.584;9.938;2022-10-01T08:01:20;7.00;;;5.80;;
3022;SDS011;1521;53.584;9.938;2022-10-01T08:03:49;9.70;;;5.87;;
3022;SDS011;1521;53.584;9.938;2022-10-01T08:06:17;6.03;;;5.53;;
3022;SDS011;1521;53.584;9.938;2022-10-01T08:08:43;7.40;;;5.40;;
3022;SDS011;1521;53.584;9.938;2022-10-01T08:11:09;7.90;;;4.90;;
3022;SDS011;1521;53.584;9.938;2022-10-01T08:13:37;6.47;;;5.23;;
3022;SDS011;1521;53.584;9.938;2022-10-01T08:16:03;7.13;;;5.43;;
3022;SDS011;1521;53.584;9.938;2022-10-01T08:18:30;5.13;;;4.63;;
3022;SDS011;1521;53.584;9.938;2022-10-01T08:20:57;5.17;;;4.37;;
3022;SDS011;1521;53.584;9.938;2022-10-01T08:23:26;7.27;;;4.30;;
3022;SDS011;1521;53.584;9.938;2022-10-01T08:25:57;6.10;;;4.67;;
3022;SDS011;1521;53.584;9.938;2022-10-01T08:28:31;5.07;;;4.20;;
3022;SDS011;1521;53.584;9.938;2022-10-01T08:30:58;4.33;;;3.80;;
3022;SDS011;1521;53.584;9.938;2022-10-01T08:33:30;4.30;;;3.40;;
3022;SDS011;1521;53.584;9.938;2022-10-01T08:35:59;3.70;;;3.40;;
3022;SDS011;1521;53.584;9.938;2022-10-01T08:38:26;9.10;;;3.60;;
3022;SDS011;1521;53.584;9.938;2022-10-01T08:40:52;5.63;;;4.10;;
3022;SDS011;1521;53.584;9.938;2022-10-01T08:43:25;3.97;;;3.53;;
3022;SDS011;1521;53.584;9.938;2022-10-01T08:45:53;4.13;;;3.50;;
3022;SDS011;1521;53.584;9.938;2022-10-01T08:53:20;4.60;;;3.70;;
3022;SDS011;1521;53.584;9.938;2022-10-01T08:56:16;8.50;;;3.20;;
3022;SDS011;1521;53.584;9.938;2022-10-01T08:58:48;6.00;;;3.83;;
3022;SDS011;1521;53.584;9.938;2022-10-01T09:01:26;4.33;;;3.87;;
3022;SDS011;1521;53.584;9.938;2022-10-01T09:03:53;4.13;;;3.77;;
3022;SDS011;1521;53.584;9.938;2022-10-01T09:14:39;4.33;;;3.93;;
3022;SDS011;1521;53.584;9.938;2022-10-01T09:25:41;7.23;;;4.30;;
3022;SDS011;1521;53.584;9.938;2022-10-01T09:28:14;4.87;;;4.37;;
3022;SDS011;1521;53.584;9.938;2022-10-01T09:31:14;4.93;;;4.43;;
3022;SDS011;1521;53.584;9.938;2022-10-01T09:33:50;6.43;;;5.10;;
3022;SDS011;1521;53.584;9.938;2022-10-01T09:36:49;5.73;;;5.23;;
3022;SDS011;1521;53.584;9.938;2022-10-01T09:39:40;7.63;;;5.80;;
3022;SDS011;1521;53.584;9.938;2022-10-01T09:42:12;6.57;;;5.97;;
3022;SDS011;1521;53.584;9.938;2022-10-01T09:44:38;11.30;;;6.30;;
3022;SDS011;1521;53.584;9.938;2022-10-01T09:47:15;11.03;;;7.10;;
3022;SDS011;1521;53.584;9.938;2022-10-01T09:49:42;8.60;;;6.60;;
3022;SDS011;1521;53.584;9.938;2022-10-01T09:52:31;9.70;;;6.90;;
3022;SDS011;1521;53.584;9.938;2022-10-01T09:57:37;8.97;;;7.00;;
3022;SDS011;1521;53.584;9.938;2022-10-01T10:00:17;8.33;;;7.47;;
3022;SDS011;1521;53.584;9.938;2022-10-01T10:02:45;12.40;;;7.60;;
3022;SDS011;1521;53.584;9.938;2022-10-01T10:05:13;8.23;;;7.47;;
3022;SDS011;1521;53.584;9.938;2022-10-01T10:07:54;8.80;;;7.83;;
3022;SDS011;1521;53.584;9.938;2022-10-01T10:12:59;9.03;;;7.80;;
3022;SDS011;1521;53.584;9.938;2022-10-01T10:15:28;11.23;;;7.70;;
3022;SDS011;1521;53.584;9.938;2022-10-01T10:17:56;7.50;;;6.80;;
3022;SDS011;1521;53.584;9.938;2022-10-01T10:20:31;9.20;;;8.23;;
3022;SDS011;1521;53.584;9.938;2022-10-01T10:23:21;9.30;;;7.00;;
3022;SDS011;1521;53.584;9.938;2022-10-01T10:25:56;9.00;;;7.57;;
3022;SDS011;1521;53.584;9.938;2022-10-01T10:28:42;9.43;;;7.80;;
3022;SDS011;1521;53.584;9.938;2022-10-01T10:31:13;9.47;;;7.57;;
3022;SDS011;1521;53.584;9.938;2022-10-01T10:33:56;10.00;;;7.00;;
3022;SDS011;1521;53.584;9.938;2022-10-01T10:36:29;9.00;;;7.00;;
3022;SDS011;1521;53.584;9.938;2022-10-01T10:38:57;8.00;;;7.20;;
3022;SDS011;1521;53.584;9.938;2022-10-01T10:41:24;9.07;;;7.10;;
3022;SDS011;1521;53.584;9.938;2022-10-01T10:43:52;8.47;;;7.17;;
3022;SDS011;1521;53.584;9.938;2022-10-01T10:46:34;8.30;;;7.07;;
3022;SDS011;1521;53.584;9.938;2022-10-01T10:49:04;13.37;;;7.77;;
3022;SDS011;1521;53.584;9.938;2022-10-01T10:51:42;10.17;;;8.07;;
3022;SDS011;1521;53.584;9.938;2022-10-01T10:54:16;9.27;;;8.03;;
3022;SDS011;1521;53.584;9.938;2022-10-01T10:57:35;11.30;;;7.73;;
3022;SDS011;1521;53.584;9.938;2022-10-01T11:02:26;7.90;;;6.20;;
3022;SDS011;1521;53.584;9.938;2022-10-01T11:04:54;6.50;;;5.90;;
3022;SDS011;1521;53.584;9.938;2022-10-01T11:07:23;6.57;;;4.47;;
3022;SDS011;1521;53.584;9.938;2022-10-01T11:13:17;5.20;;;4.70;;
3022;SDS011;1521;53.584;9.938;2022-10-01T11:16:28;7.00;;;5.10;;
3022;SDS011;1521;53.584;9.938;2022-10-01T11:19:16;6.70;;;4.77;;
3022;SDS011;1521;53.584;9.938;2022-10-01T11:30:08;9.13;;;3.90;;
3022;SDS011;1521;53.584;9.938;2022-10-01T11:40:20;9.77;;;3.33;;
3022;SDS011;1521;53.584;9.938;2022-10-01T11:42:55;8.63;;;3.20;;
3022;SDS011;1521;53.584;9.938;2022-10-01T11:45:28;8.83;;;3.70;;
3022;SDS011;1521;53.584;9.938;2022-10-01T11:48:44;10.37;;;4.33;;
3022;SDS011;1521;53.584;9.938;2022-10-01T11:50:54;8.83;;;3.57;;
3022;SDS011;1521;53.584;9.938;2022-10-01T11:53:27;6.90;;;3.10;;
3022;SDS011;1521;53.584;9.938;2022-10-01T11:56:06;6.73;;;3.33;;
3022;SDS011;1521;53.584;9.938;2022-10-01T11:59:01;10.80;;;3.60;;
3022;SDS011;1521;53.584;9.938;2022-10-01T12:01:37;10.80;;;3.30;;
3022;SDS011;1521;53.584;9.938;2022-10-01T12:04:16;9.97;;;2.83;;
3022;SDS011;1521;53.584;9.938;2022-10-01T12:06:58;14.10;;;3.10;;
3022;SDS011;1521;53.584;9.938;2022-10-01T12:10:37;6.77;;;2.50;;
3022;SDS011;1521;53.584;9.938;2022-10-01T12:12:46;9.20;;;2.60;;
3022;SDS011;1521;53.584;9.938;2022-10-01T12:15:31;6.53;;;2.40;;
3022;SDS011;1521;53.584;9.938;2022-10-01T12:18:08;4.27;;;1.93;;
3022;SDS011;1521;53.584;9.938;2022-10-01T12:20:43;5.40;;;1.87;;
3022;SDS011;1521;53.584;9.938;2022-10-01T12:23:23;10.77;;;2.10;;
3022;SDS011;1521;53.584;9.938;2022-10-01T12:28:39;9.93;;;2.60;;
3022;SDS011;1521;53.584;9.938;2022-10-01T12:31:34;4.60;;;1.70;;
3022;SDS011;1521;53.584;9.938;2022-10-01T12:36:52;3.43;;;1.50;;
3022;SDS011;1521;53.584;9.938;2022-10-01T12:47:28;3.73;;;1.43;;
3022;SDS011;1521;53.584;9.938;2022-10-01T13:01:17;4.20;;;1.70;;
3022;SDS011;1521;53.584;9.938;2022-10-01T13:09:58;6.53;;;1.97;;
3022;SDS011;1521;53.584;9.938;2022-10-01T13:15:37;6.60;;;1.93;;
3022;SDS011;1521;53.584;9.938;2022-10-01T13:18:08;8.37;;;2.00;;
3022;SDS011;1521;53.584;9.938;2022-10-01T13:21:25;3.63;;;1.23;;
3022;SDS011;1521;53.584;9.938;2022-10-01T13:24:12;1.93;;;0.90;;
3022;SDS011;1521;53.584;9.938;2022-10-01T13:26:50;5.13;;;2.03;;
3022;SDS011;1521;53.584;9.938;2022-10-01T13:34:52;2.10;;;1.30;;
3022;SDS011;1521;53.584;9.938;2022-10-01T13:40:01;2.93;;;1.27;;
3022;SDS011;1521;53.584;9.938;2022-10-01T13:42:29;5.57;;;1.30;;
3022;SDS011;1521;53.584;9.938;2022-10-01T13:45:03;2.17;;;1.20;;
3022;SDS011;1521;53.584;9.938;2022-10-01T13:47:31;4.57;;;1.43;;
3022;SDS011;1521;53.584;9.938;2022-10-01T13:50:04;6.80;;;1.90;;
3022;SDS011;1521;53.584;9.938;2022-10-01T13:52:41;3.63;;;1.60;;
3022;SDS011;1521;53.584;9.938;2022-10-01T13:55:18;6.10;;;1.97;;
3022;SDS011;1521;53.584;9.938;2022-10-01T13:58:02;7.13;;;1.70;;
3022;SDS011;1521;53.584;9.938;2022-10-01T14:00:51;6.20;;;1.50;;
3022;SDS011;1521;53.584;9.938;2022-10-01T14:06:16;7.33;;;1.60;;
3022;SDS011;1521;53.584;9.938;2022-10-01T14:12:05;5.80;;;1.37;;
3022;SDS011;1521;53.584;9.938;2022-10-01T14:14:48;3.07;;;1.40;;
3022;SDS011;1521;53.584;9.938;2022-10-01T14:17:49;6.50;;;1.27;;
3022;SDS011;1521;53.584;9.938;2022-10-01T14:20:26;2.53;;;1.40;;
3022;SDS011;1521;53.584;9.938;2022-10-01T14:23:07;3.70;;;1.20;;
3022;SDS011;1521;53.584;9.938;2022-10-01T14:28:56;2.33;;;1.20;;
3022;SDS011;1521;53.584;9.938;2022-10-01T14:36:42;5.27;;;1.60;;
3022;SDS011;1521;53.584;9.938;2022-10-01T14:39:14;4.83;;;1.43;;
3022;SDS011;1521;53.584;9.938;2022-10-01T14:41:49;6.30;;;2.13;;
3022;SDS011;1521;53.584;9.938;2022-10-01T14:44:21;5.17;;;1.80;;
3022;SDS011;1521;53.584;9.938;2022-10-01T14:46:50;4.90;;;1.70;;
3022;SDS011;1521;53.584;9.938;2022-10-01T14:49:22;4.77;;;1.43;;
3022;SDS011;1521;53.584;9.938;2022-10-01T14:51:48;3.80;;;1.53;;
3022;SDS011;1521;53.584;9.938;2022-10-01T14:54:16;4.00;;;1.40;;
3022;SDS011;1521;53.584;9.938;2022-10-01T14:56:44;2.70;;;1.10;;
3022;SDS011;1521;53.584;9.938;2022-10-01T14:59:13;3.10;;;1.30;;
3022;SDS011;1521;53.584;9.938;2022-10-01T15:01:52;3.87;;;1.30;;
3022;SDS011;1521;53.584;9.938;2022-10-01T15:04:25;4.80;;;1.30;;
3022;SDS011;1521;53.584;9.938;2022-10-01T15:06:50;5.53;;;1.20;;
3022;SDS011;1521;53.584;9.938;2022-10-01T15:09:16;6.97;;;1.90;;
3022;SDS011;1521;53.584;9.938;2022-10-01T15:11:43;5.30;;;1.73;;
3022;SDS011;1521;53.584;9.938;2022-10-01T15:14:20;7.23;;;2.07;;
3022;SDS011;1521;53.584;9.938;2022-10-01T15:16:48;1.87;;;1.30;;
3022;SDS011;1521;53.584;9.938;2022-10-01T15:19:15;7.53;;;1.80;;
3022;SDS011;1521;53.584;9.938;2022-10-01T15:21:51;7.63;;;1.80;;
3022;SDS011;1521;53.584;9.938;2022-10-01T15:24:23;6.40;;;1.33;;
3022;SDS011;1521;53.584;9.938;2022-10-01T15:27:03;1.80;;;1.20;;
3022;SDS011;1521;53.584;9.938;2022-10-01T15:29:30;7.43;;;1.70;;
3022;SDS011;1521;53.584;9.938;2022-10-01T15:31:56;2.50;;;1.60;;
3022;SDS011;1521;53.584;9.938;2022-10-01T15:34:24;5.20;;;1.90;;
3022;SDS011;1521;53.584;9.938;2022-10-01T15:36:50;5.23;;;2.30;;
3022;SDS011;1521;53.584;9.938;2022-10-01T15:39:22;4.53;;;2.23;;
3022;SDS011;1521;53.584;9.938;2022-10-01T15:41:52;3.47;;;2.00;;
3022;SDS011;1521;53.584;9.938;2022-10-01T15:50:03;6.47;;;2.10;;
3022;SDS011;1521;53.584;9.938;2022-10-01T15:57:51;4.03;;;2.20;;
3022;SDS011;1521;53.584;9.938;2022-10-01T16:00:20;4.10;;;2.10;;
3022;SDS011;1521;53.584;9.938;2022-10-01T16:02:54;8.57;;;3.73;;
3022;SDS011;1521;53.584;9.938;2022-10-01T16:05:23;3.23;;;2.50;;
3022;SDS011;1521;53.584;9.938;2022-10-01T16:07:53;4.40;;;1.80;;
3022;SDS011;1521;53.584;9.938;2022-10-01T16:10:35;5.97;;;1.80;;
3022;SDS011;1521;53.584;9.938;2022-10-01T16:18:36;4.97;;;1.60;;
3022;SDS011;1521;53.584;9.938;2022-10-01T16:21:03;5.37;;;1.77;;
3022;SDS011;1521;53.584;9.938;2022-10-01T16:23:34;7.60;;;1.80;;
3022;SDS011;1521;53.584;9.938;2022-10-01T16:26:36;12.70;;;3.00;;
3022;SDS011;1521;53.584;9.938;2022-10-01T16:29:06;6.53;;;1.70;;
3022;SDS011;1521;53.584;9.938;2022-10-01T16:31:43;7.30;;;2.30;;
3022;SDS011;1521;53.584;9.938;2022-10-01T16:34:13;7.13;;;2.80;;
3022;SDS011;1521;53.584;9.938;2022-10-01T16:36:41;7.33;;;1.80;;
3022;SDS011;1521;53.584;9.938;2022-10-01T16:39:08;8.60;;;2.50;;
3022;SDS011;1521;53.584;9.938;2022-10-01T16:41:37;5.20;;;1.50;;
3022;SDS011;1521;53.584;9.938;2022-10-01T16:44:04;7.70;;;1.83;;
3022;SDS011;1521;53.584;9.938;2022-10-01T16:46:30;7.30;;;2.07;;
3022;SDS011;1521;53.584;9.938;2022-10-01T16:48:57;5.80;;;1.80;;
3022;SDS011;1521;53.584;9.938;2022-10-01T16:51:22;8.13;;;1.80;;
3022;SDS011;1521;53.584;9.938;2022-10-01T16:53:48;8.50;;;2.17;;
3022;SDS011;1521;53.584;9.938;2022-10-01T16:56:15;8.67;;;1.97;;
3022;SDS011;1521;53.584;9.938;2022-10-01T16:58:41;12.17;;;2.57;;
3022;SDS011;1521;53.584;9.938;2022-10-01T17:01:08;11.10;;;2.13;;
3022;SDS011;1521;53.584;9.938;2022-10-01T17:03:37;9.43;;;1.93;;
3022;SDS011;1521;53.584;9.938;2022-10-01T17:06:03;8.43;;;1.97;;
3022;SDS011;1521;53.584;9.938;2022-10-01T17:08:29;8.93;;;2.00;;
3022;SDS011;1521;53.584;9.938;2022-10-01T17:10:56;10.90;;;2.30;;
3022;SDS011;1521;53.584;9.938;2022-10-01T17:13:24;9.10;;;2.17;;
3022;SDS011;1521;53.584;9.938;2022-10-01T17:15:51;11.93;;;3.27;;
3022;SDS011;1521;53.584;9.938;2022-10-01T17:18:17;13.00;;;2.43;;
3022;SDS011;1521;53.584;9.938;2022-10-01T17:20:44;6.13;;;2.23;;
3022;SDS011;1521;53.584;9.938;2022-10-01T17:23:13;10.70;;;2.20;;
3022;SDS011;1521;53.584;9.938;2022-10-01T17:25:41;9.80;;;2.50;;
3022;SDS011;1521;53.584;9.938;2022-10-01T17:28:09;6.10;;;2.13;;
3022;SDS011;1521;53.584;9.938;2022-10-01T17:30:38;8.20;;;2.40;;
3022;SDS011;1521;53.584;9.938;2022-10-01T17:33:04;11.70;;;2.20;;
3022;SDS011;1521;53.584;9.938;2022-10-01T17:35:33;9.00;;;2.87;;
3022;SDS011;1521;53.584;9.938;2022-10-01T17:37:58;9.13;;;3.03;;
3022;SDS011;1521;53.584;9.938;2022-10-01T17:40:24;11.90;;;2.30;;
3022;SDS011;1521;53.584;9.938;2022-10-01T17:42:50;8.17;;;2.50;;
3022;SDS011;1521;53.584;9.938;2022-10-01T17:45:15;12.57;;;2.70;;
3022;SDS011;1521;53.584;9.938;2022-10-01T17:47:42;8.30;;;2.50;;
3022;SDS011;1521;53.584;9.938;2022-10-01T17:50:12;6.27;;;2.53;;
3022;SDS011;1521;53.584;9.938;2022-10-01T17:52:39;13.03;;;2.60;;
3022;SDS011;1521;53.584;9.938;2022-10-01T17:55:05;11.63;;;2.27;;
3022;SDS011;1521;53.584;9.938;2022-10-01T17:57:31;12.90;;;2.53;;
3022;SDS011;1521;53.584;9.938;2022-10-01T17:59:57;12.63;;;3.33;;